sensor_id;sensor_type;location;lat;lon;timestamp;temperature;humidity
8402;DHT22;4238;48.404;9.498;2023-07-13T04:02:33;14.60;99.90
8402;DHT22;4238;48.404;9.498;2023-07-13T04:05:03;14.60;99.90
8402;DHT22;4238;48.404;9.498;2023-07-13T04:07:30;14.60;99.90
8402;DHT22;4238;48.404;9.498;2023-07-13T04:09:57;14.60;99.90
8402;DHT22;4238;48.404;9.498;2023-07-13T04:12:24;14.50;99.90
8402;DHT22;4238;48.404;9.498;2023-07-13T04:14:51;14.60;99.90
8402;DHT22;4238;48.404;9.498;2023-07-13T04:17:18;14.60;99.90
8402;DHT22;4238;48.404;9.498;2023-07-13T04:19:46;14.60;99.90
8402;DHT22;4238;48.404;9.498;2023-07-13T04:22:14;14.70;99.90
8402;DHT22;4238;48.404;9.498;2023-07-13T04:24:41;14.70;99.90
8402;DHT22;4238;48.404;9.498;2023-07-13T04:27:08;14.70;99.90
8402;DHT22;4238;48.404;9.498;2023-07-13T04:29:35;14.80;99.90
8402;DHT22;4238;48.404;9.498;2023-07-13T04:32:02;14.80;99.90
8402;DHT22;4238;48.404;9.498;2023-07-13T04:34:29;14.80;99.90
8402;DHT22;4238;48.404;9.498;2023-07-13T04:36:58;14.80;99.90
8402;DHT22;4238;48.404;9.498;2023-07-13T04:39:24;14.80;99.90
8402;DHT22;4238;48.404;9.498;2023-07-13T04:41:51;14.80;99.90
8402;DHT22;4238;48.404;9.498;2023-07-13T04:44:18;14.80;99.90
8402;DHT22;4238;48.404;9.498;2023-07-13T04:46:45;14.90;99.90
8402;DHT22;4238;48.404;9.498;2023-07-13T04:49:12;14.90;99.90
8402;DHT22;4238;48.404;9.498;2023-07-13T04:51:39;15.00;99.90
8402;DHT22;4238;48.404;9.498;2023-07-13T04:54:07;15.00;99.90
8402;DHT22;4238;48.404;9.498;2023-07-13T04:56:34;15.00;99.90
8402;DHT22;4238;48.404;9.498;2023-07-13T04:59:01;15.00;99.90
8402;DHT22;4238;48.404;9.498;2023-07-13T05:01:27;14.80;99.90
8402;DHT22;4238;48.404;9.498;2023-07-13T05:03:54;14.90;99.90
8402;DHT22;4238;48.404;9.498;2023-07-13T05:06:24;15.00;99.90
8402;DHT22;4238;48.404;9.498;2023-07-13T05:08:50;15.00;99.90
8402;DHT22;4238;48.404;9.498;2023-07-13T05:11:19;15.20;99.90
8402;DHT22;4238;48.404;9.498;2023-07-13T05:13:46;15.20;99.90
8402;DHT22;4238;48.404;9.498;2023-07-13T05:16:13;15.20;99.90
8402;DHT22;4238;48.404;9.498;2023-07-13T05:18:39;15.20;99.90
8402;DHT22;4238;48.404;9.498;2023-07-13T05:21:10;15.30;99.90
8402;DHT22;4238;48.404;9.498;2023-07-13T05:23:37;15.30;99.90
8402;DHT22;4238;48.404;9.498;2023-07-13T05:26:04;15.30;99.90
8402;DHT22;4238;48.404;9.498;2023-07-13T05:28:32;15.40;99.90
8402;DHT22;4238;48.404;9.498;2023-07-13T05:30:59;15.50;99.90
8402;DHT22;4238;48.404;9.498;2023-07-13T05:33:26;15.50;99.90
8402;DHT22;4238;48.404;9.498;2023-07-13T05:35:54;15.60;99.90
8402;DHT22;4238;48.404;9.498;2023-07-13T05:38:21;15.60;99.90
8402;DHT22;4238;48.404;9.498;2023-07-13T05:40:48;15.60;99.90
8402;DHT22;4238;48.404;9.498;2023-07-13T05:43:15;15.70;99.90
8402;DHT22;4238;48.404;9.498;2023-07-13T05:45:43;15.70;99.90
8402;DHT22;4238;48.404;9.498;2023-07-13T05:48:10;15.70;99.90
8402;DHT22;4238;48.404;9.498;2023-07-13T05:50:37;15.90;99.90
8402;DHT22;4238;48.404;9.498;2023-07-13T05:53:04;15.80;99.90
8402;DHT22;4238;48.404;9.498;2023-07-13T05:55:31;15.80;98.40
8402;DHT22;4238;48.404;9.498;2023-07-13T05:57:59;15.80;99.90
8402;DHT22;4238;48.404;9.498;2023-07-13T06:00:26;15.70;99.90
8402;DHT22;4238;48.404;9.498;2023-07-13T06:02:56;15.70;99.90
8402;DHT22;4238;48.404;9.498;2023-07-13T06:05:24;16.00;99.90
8402;DHT22;4238;48.404;9.498;2023-07-13T06:07:51;16.40;99.90
8402;DHT22;4238;48.404;9.498;2023-07-13T06:10:17;16.80;91.10
8402;DHT22;4238;48.404;9.498;2023-07-13T06:12:44;17.10;56.00
8402;DHT22;4238;48.404;9.498;2023-07-13T06:15:11;17.30;40.10
8402;DHT22;4238;48.404;9.498;2023-07-13T06:17:38;17.30;25.10
8402;DHT22;4238;48.404;9.498;2023-07-13T06:20:08;17.20;58.90
8402;DHT22;4238;48.404;9.498;2023-07-13T06:22:34;17.10;57.00
8402;DHT22;4238;48.404;9.498;2023-07-13T06:25:01;17.10;42.00
8402;DHT22;4238;48.404;9.498;2023-07-13T06:27:28;17.20;33.60
8402;DHT22;4238;48.404;9.498;2023-07-13T06:29:55;17.30;51.10
8402;DHT22;4238;48.404;9.498;2023-07-13T06:32:22;17.30;82.60
8402;DHT22;4238;48.404;9.498;2023-07-13T06:34:49;17.40;44.30
8402;DHT22;4238;48.404;9.498;2023-07-13T06:37:18;17.50;10.60
8402;DHT22;4238;48.404;9.498;2023-07-13T06:39:45;17.40;1.00
8402;DHT22;4238;48.404;9.498;2023-07-13T06:42:12;17.50;19.80
8402;DHT22;4238;48.404;9.498;2023-07-13T06:44:39;17.40;26.20
8402;DHT22;4238;48.404;9.498;2023-07-13T06:47:06;17.50;46.20
8402;DHT22;4238;48.404;9.498;2023-07-13T06:49:33;17.60;24.20
8402;DHT22;4238;48.404;9.498;2023-07-13T06:52:00;17.70;21.60
8402;DHT22;4238;48.404;9.498;2023-07-13T06:54:28;17.80;1.00
8402;DHT22;4238;48.404;9.498;2023-07-13T06:56:55;18.00;1.00
8402;DHT22;4238;48.404;9.498;2023-07-13T06:59:22;18.60;1.00
8402;DHT22;4238;48.404;9.498;2023-07-13T07:01:49;18.90;1.00
8402;DHT22;4238;48.404;9.498;2023-07-13T07:04:16;19.10;1.00
8402;DHT22;4238;48.404;9.498;2023-07-13T07:06:43;19.20;1.00
8402;DHT22;4238;48.404;9.498;2023-07-13T07:09:10;19.10;1.00
8402;DHT22;4238;48.404;9.498;2023-07-13T07:11:38;19.10;1.00
8402;DHT22;4238;48.404;9.498;2023-07-13T07:14:05;19.20;1.00
8402;DHT22;4238;48.404;9.498;2023-07-13T07:16:32;19.30;99.90
8402;DHT22;4238;48.404;9.498;2023-07-13T07:18:59;19.50;1.00
8402;DHT22;4238;48.404;9.498;2023-07-13T07:21:26;19.70;1.00
8402;DHT22;4238;48.404;9.498;2023-07-13T07:23:53;19.60;99.90
8402;DHT22;4238;48.404;9.498;2023-07-13T07:26:20;19.80;1.00
8402;DHT22;4238;48.404;9.498;2023-07-13T07:28:48;19.90;1.00
8402;DHT22;4238;48.404;9.498;2023-07-13T07:31:15;20.20;2.00
8402;DHT22;4238;48.404;9.498;2023-07-13T07:33:41;20.50;1.00
8402;DHT22;4238;48.404;9.498;2023-07-13T07:36:08;20.70;99.90
8402;DHT22;4238;48.404;9.498;2023-07-13T07:38:35;20.90;99.90
8402;DHT22;4238;48.404;9.498;2023-07-13T07:41:03;20.90;99.90
8402;DHT22;4238;48.404;9.498;2023-07-13T07:43:30;20.50;1.00
8402;DHT22;4238;48.404;9.498;2023-07-13T07:45:59;20.30;99.90
8402;DHT22;4238;48.404;9.498;2023-07-13T07:48:26;20.00;1.00
8402;DHT22;4238;48.404;9.498;2023-07-13T07:50:53;20.00;1.00
8402;DHT22;4238;48.404;9.498;2023-07-13T07:53:20;20.00;99.90
8402;DHT22;4238;48.404;9.498;2023-07-13T07:55:47;19.90;1.00
8402;DHT22;4238;48.404;9.498;2023-07-13T07:58:14;19.80;1.00
8402;DHT22;4238;48.404;9.498;2023-07-13T08:00:41;19.50;99.90
8402;DHT22;4238;48.404;9.498;2023-07-13T08:03:10;19.30;1.00
8402;DHT22;4238;48.404;9.498;2023-07-13T08:05:37;19.30;1.00
8402;DHT22;4238;48.404;9.498;2023-07-13T08:08:04;19.30;1.00
8402;DHT22;4238;48.404;9.498;2023-07-13T08:10:31;19.00;91.90
8402;DHT22;4238;48.404;9.498;2023-07-13T08:12:57;19.10;1.00
8402;DHT22;4238;48.404;9.498;2023-07-13T08:15:25;19.20;1.00
8402;DHT22;4238;48.404;9.498;2023-07-13T08:17:52;19.50;99.90
8402;DHT22;4238;48.404;9.498;2023-07-13T08:20:20;19.70;1.00
8402;DHT22;4238;48.404;9.498;2023-07-13T08:22:47;20.00;99.90
8402;DHT22;4238;48.404;9.498;2023-07-13T08:25:14;20.50;1.00
8402;DHT22;4238;48.404;9.498;2023-07-13T08:27:41;21.20;99.90
8402;DHT22;4238;48.404;9.498;2023-07-13T08:30:09;21.40;1.00
8402;DHT22;4238;48.404;9.498;2023-07-13T08:32:36;21.50;99.90
8402;DHT22;4238;48.404;9.498;2023-07-13T08:35:04;21.80;75.30
8402;DHT22;4238;48.404;9.498;2023-07-13T08:37:32;22.00;1.00
8402;DHT22;4238;48.404;9.498;2023-07-13T08:39:59;21.90;1.00
8402;DHT22;4238;48.404;9.498;2023-07-13T08:42:32;21.70;1.00
8402;DHT22;4238;48.404;9.498;2023-07-13T08:45:12;22.00;99.90
8402;DHT22;4238;48.404;9.498;2023-07-13T08:47:46;21.80;1.00
8402;DHT22;4238;48.404;9.498;2023-07-13T08:50:18;22.10;1.00
8402;DHT22;4238;48.404;9.498;2023-07-13T08:52:47;22.50;1.00
8402;DHT22;4238;48.404;9.498;2023-07-13T08:55:16;22.40;1.00
8402;DHT22;4238;48.404;9.498;2023-07-13T08:57:48;22.70;1.00
8402;DHT22;4238;48.404;9.498;2023-07-13T09:10:32;23.50;1.00
8402;DHT22;4238;48.404;9.498;2023-07-13T09:13:11;23.20;1.00
8402;DHT22;4238;48.404;9.498;2023-07-13T09:15:44;23.60;99.90
8402;DHT22;4238;48.404;9.498;2023-07-13T09:18:16;23.40;99.90
8402;DHT22;4238;48.404;9.498;2023-07-13T09:20:49;23.20;99.90
8402;DHT22;4238;48.404;9.498;2023-07-13T09:23:20;23.50;1.00
8402;DHT22;4238;48.404;9.498;2023-07-13T09:25:51;23.70;99.90
8402;DHT22;4238;48.404;9.498;2023-07-13T09:28:23;23.80;99.90
8402;DHT22;4238;48.404;9.498;2023-07-13T09:30:53;23.40;99.90
8402;DHT22;4238;48.404;9.498;2023-07-13T09:33:22;22.90;99.90
8402;DHT22;4238;48.404;9.498;2023-07-13T09:35:49;22.50;99.90
8402;DHT22;4238;48.404;9.498;2023-07-13T09:38:18;22.30;99.90
8402;DHT22;4238;48.404;9.498;2023-07-13T09:41:00;22.30;1.00
8402;DHT22;4238;48.404;9.498;2023-07-13T09:43:27;22.40;99.90
8402;DHT22;4238;48.404;9.498;2023-07-13T09:45:56;22.30;99.90
8402;DHT22;4238;48.404;9.498;2023-07-13T09:48:22;22.40;99.90
8402;DHT22;4238;48.404;9.498;2023-07-13T09:50:54;22.90;92.40
8402;DHT22;4238;48.404;9.498;2023-07-13T09:53:22;22.90;1.00
8402;DHT22;4238;48.404;9.498;2023-07-13T09:55:49;22.80;1.00
8402;DHT22;4238;48.404;9.498;2023-07-13T09:58:20;23.10;99.90
8402;DHT22;4238;48.404;9.498;2023-07-13T10:00:56;23.30;99.90
8402;DHT22;4238;48.404;9.498;2023-07-13T10:03:25;23.50;99.90
8402;DHT22;4238;48.404;9.498;2023-07-13T10:05:53;23.80;99.90
8402;DHT22;4238;48.404;9.498;2023-07-13T10:08:22;24.40;99.90
8402;DHT22;4238;48.404;9.498;2023-07-13T10:10:54;24.70;99.90
8402;DHT22;4238;48.404;9.498;2023-07-13T10:13:34;24.40;90.20
8402;DHT22;4238;48.404;9.498;2023-07-13T10:16:02;24.30;1.00
8402;DHT22;4238;48.404;9.498;2023-07-13T10:18:38;24.00;1.00
8402;DHT22;4238;48.404;9.498;2023-07-13T10:21:15;24.30;47.90
8402;DHT22;4238;48.404;9.498;2023-07-13T10:23:45;24.30;1.00
8402;DHT22;4238;48.404;9.498;2023-07-13T10:26:27;24.00;1.00
8402;DHT22;4238;48.404;9.498;2023-07-13T10:29:00;23.90;1.00
8402;DHT22;4238;48.404;9.498;2023-07-13T10:31:31;24.00;1.00
8402;DHT22;4238;48.404;9.498;2023-07-13T10:33:58;24.10;2.90
8402;DHT22;4238;48.404;9.498;2023-07-13T10:36:31;24.30;1.00
8402;DHT22;4238;48.404;9.498;2023-07-13T10:39:03;24.90;1.00
8402;DHT22;4238;48.404;9.498;2023-07-13T10:41:33;25.60;1.00
8402;DHT22;4238;48.404;9.498;2023-07-13T10:44:04;25.90;1.00
8402;DHT22;4238;48.404;9.498;2023-07-13T10:46:34;25.70;1.00
8402;DHT22;4238;48.404;9.498;2023-07-13T10:49:03;25.30;1.00
8402;DHT22;4238;48.404;9.498;2023-07-13T10:51:31;25.20;1.00
8402;DHT22;4238;48.404;9.498;2023-07-13T10:54:15;25.30;1.00
8402;DHT22;4238;48.404;9.498;2023-07-13T10:56:43;25.00;1.00
8402;DHT22;4238;48.404;9.498;2023-07-13T10:59:16;25.40;1.00
8402;DHT22;4238;48.404;9.498;2023-07-13T11:01:51;25.60;1.00
8402;DHT22;4238;48.404;9.498;2023-07-13T11:04:20;25.60;1.00
8402;DHT22;4238;48.404;9.498;2023-07-13T11:06:50;25.80;1.00
8402;DHT22;4238;48.404;9.498;2023-07-13T11:09:36;25.90;1.00
8402;DHT22;4238;48.404;9.498;2023-07-13T11:12:10;26.00;1.00
8402;DHT22;4238;48.404;9.498;2023-07-13T11:15:11;26.30;1.00
8402;DHT22;4238;48.404;9.498;2023-07-13T11:17:48;25.80;1.00
8402;DHT22;4238;48.404;9.498;2023-07-13T11:20:30;25.30;1.00
8402;DHT22;4238;48.404;9.498;2023-07-13T11:23:09;24.70;1.00
8402;DHT22;4238;48.404;9.498;2023-07-13T11:25:44;24.20;1.00
8402;DHT22;4238;48.404;9.498;2023-07-13T11:28:17;24.50;1.00
8402;DHT22;4238;48.404;9.498;2023-07-13T11:30:50;25.20;1.00
8402;DHT22;4238;48.404;9.498;2023-07-13T11:33:29;25.70;1.00
8402;DHT22;4238;48.404;9.498;2023-07-13T11:36:03;26.00;1.00
8402;DHT22;4238;48.404;9.498;2023-07-13T11:38:34;25.90;1.00
8402;DHT22;4238;48.404;9.498;2023-07-13T11:41:05;25.40;1.00
8402;DHT22;4238;48.404;9.498;2023-07-13T11:43:33;25.00;1.00
8402;DHT22;4238;48.404;9.498;2023-07-13T11:46:14;25.00;1.00
8402;DHT22;4238;48.404;9.498;2023-07-13T11:48:42;25.30;1.00
8402;DHT22;4238;48.404;9.498;2023-07-13T11:51:18;25.50;1.00
8402;DHT22;4238;48.404;9.498;2023-07-13T11:53:48;25.50;1.00
8402;DHT22;4238;48.404;9.498;2023-07-13T11:56:15;25.80;1.00
8402;DHT22;4238;48.404;9.498;2023-07-13T11:58:42;25.40;99.90
8402;DHT22;4238;48.404;9.498;2023-07-13T12:01:20;25.80;1.00
8402;DHT22;4238;48.404;9.498;2023-07-13T12:03:48;26.00;1.00
8402;DHT22;4238;48.404;9.498;2023-07-13T12:06:26;26.20;1.00
8402;DHT22;4238;48.404;9.498;2023-07-13T12:08:56;26.30;1.00
8402;DHT22;4238;48.404;9.498;2023-07-13T12:11:24;26.40;1.00
8402;DHT22;4238;48.404;9.498;2023-07-13T12:13:51;26.40;99.90
8402;DHT22;4238;48.404;9.498;2023-07-13T12:16:28;26.20;99.90
8402;DHT22;4238;48.404;9.498;2023-07-13T12:18:59;26.00;99.90
8402;DHT22;4238;48.404;9.498;2023-07-13T12:21:31;25.20;99.90
8402;DHT22;4238;48.404;9.498;2023-07-13T12:23:58;24.80;99.90
8402;DHT22;4238;48.404;9.498;2023-07-13T12:26:28;25.10;99.90
8402;DHT22;4238;48.404;9.498;2023-07-13T12:28:58;25.40;99.90
8402;DHT22;4238;48.404;9.498;2023-07-13T12:31:33;25.40;99.90
8402;DHT22;4238;48.404;9.498;2023-07-13T12:34:02;25.60;99.90
8402;DHT22;4238;48.404;9.498;2023-07-13T12:36:32;26.00;99.90
8402;DHT22;4238;48.404;9.498;2023-07-13T12:39:04;26.30;1.00
8402;DHT22;4238;48.404;9.498;2023-07-13T12:41:32;26.70;99.90
8402;DHT22;4238;48.404;9.498;2023-07-13T12:44:00;26.60;99.90
8402;DHT22;4238;48.404;9.498;2023-07-13T12:46:28;26.20;99.90
8402;DHT22;4238;48.404;9.498;2023-07-13T12:48:57;25.90;99.90
8402;DHT22;4238;48.404;9.498;2023-07-13T12:51:26;25.30;99.90
8402;DHT22;4238;48.404;9.498;2023-07-13T12:53:57;25.10;99.90
8402;DHT22;4238;48.404;9.498;2023-07-13T12:56:27;25.40;99.90
8402;DHT22;4238;48.404;9.498;2023-07-13T12:58:57;25.70;99.90
8402;DHT22;4238;48.404;9.498;2023-07-13T13:01:28;25.80;99.90
8402;DHT22;4238;48.404;9.498;2023-07-13T13:03:55;25.30;99.90
8402;DHT22;4238;48.404;9.498;2023-07-13T13:06:25;25.00;99.90
8402;DHT22;4238;48.404;9.498;2023-07-13T13:08:55;24.80;99.90
8402;DHT22;4238;48.404;9.498;2023-07-13T13:11:24;24.60;99.90
8402;DHT22;4238;48.404;9.498;2023-07-13T13:13:52;24.50;99.90
8402;DHT22;4238;48.404;9.498;2023-07-13T13:16:21;24.50;99.90
8402;DHT22;4238;48.404;9.498;2023-07-13T13:18:53;24.70;99.90
8402;DHT22;4238;48.404;9.498;2023-07-13T13:21:20;25.30;99.90
8402;DHT22;4238;48.404;9.498;2023-07-13T13:23:47;25.50;99.90
8402;DHT22;4238;48.404;9.498;2023-07-13T13:26:15;25.40;99.90
8402;DHT22;4238;48.404;9.498;2023-07-13T13:28:42;25.70;99.90
8402;DHT22;4238;48.404;9.498;2023-07-13T13:31:11;26.00;99.90
8402;DHT22;4238;48.404;9.498;2023-07-13T13:33:39;26.20;99.90
8402;DHT22;4238;48.404;9.498;2023-07-13T13:36:14;26.50;99.90
8402;DHT22;4238;48.404;9.498;2023-07-13T13:38:42;26.60;99.90
8402;DHT22;4238;48.404;9.498;2023-07-13T13:41:10;26.80;99.90
8402;DHT22;4238;48.404;9.498;2023-07-13T13:43:39;26.60;99.90
8402;DHT22;4238;48.404;9.498;2023-07-13T13:46:14;25.60;99.90
8402;DHT22;4238;48.404;9.498;2023-07-13T13:48:41;25.50;99.90
8402;DHT22;4238;48.404;9.498;2023-07-13T13:51:15;25.70;99.90
8402;DHT22;4238;48.404;9.498;2023-07-13T13:53:43;25.80;99.90
8402;DHT22;4238;48.404;9.498;2023-07-13T13:56:11;25.60;99.90
8402;DHT22;4238;48.404;9.498;2023-07-13T13:58:38;25.20;99.90
8402;DHT22;4238;48.404;9.498;2023-07-13T14:01:08;25.10;99.90
8402;DHT22;4238;48.404;9.498;2023-07-13T14:03:37;25.30;99.90
8402;DHT22;4238;48.404;9.498;2023-07-13T14:06:04;25.70;99.90
8402;DHT22;4238;48.404;9.498;2023-07-13T14:08:33;26.00;99.90
8402;DHT22;4238;48.404;9.498;2023-07-13T14:10:59;26.10;99.90
8402;DHT22;4238;48.404;9.498;2023-07-13T14:13:28;25.80;99.90
8402;DHT22;4238;48.404;9.498;2023-07-13T14:15:57;25.30;99.90
8402;DHT22;4238;48.404;9.498;2023-07-13T14:18:25;25.30;99.90
8402;DHT22;4238;48.404;9.498;2023-07-13T14:20:51;25.30;99.90
8402;DHT22;4238;48.404;9.498;2023-07-13T14:23:18;25.30;99.90
8402;DHT22;4238;48.404;9.498;2023-07-13T14:25:47;25.40;99.90
8402;DHT22;4238;48.404;9.498;2023-07-13T14:28:20;25.10;99.90
8402;DHT22;4238;48.404;9.498;2023-07-13T14:30:47;25.40;99.90
8402;DHT22;4238;48.404;9.498;2023-07-13T14:33:14;25.90;99.90
8402;DHT22;4238;48.404;9.498;2023-07-13T14:35:41;26.40;99.90
8402;DHT22;4238;48.404;9.498;2023-07-13T14:38:11;26.50;99.90
8402;DHT22;4238;48.404;9.498;2023-07-13T14:40:39;26.50;99.90
8402;DHT22;4238;48.404;9.498;2023-07-13T14:43:10;26.70;99.90
8402;DHT22;4238;48.404;9.498;2023-07-13T14:45:40;26.50;99.90
8402;DHT22;4238;48.404;9.498;2023-07-13T14:48:14;26.50;99.90
8402;DHT22;4238;48.404;9.498;2023-07-13T14:50:42;26.70;99.90
8402;DHT22;4238;48.404;9.498;2023-07-13T14:53:10;26.90;99.90
8402;DHT22;4238;48.404;9.498;2023-07-13T14:55:37;26.80;99.90
8402;DHT22;4238;48.404;9.498;2023-07-13T14:58:04;26.70;99.90
8402;DHT22;4238;48.404;9.498;2023-07-13T15:00:33;26.40;99.90
8402;DHT22;4238;48.404;9.498;2023-07-13T15:03:00;26.20;99.90
8402;DHT22;4238;48.404;9.498;2023-07-13T15:05:29;26.00;99.90
8402;DHT22;4238;48.404;9.498;2023-07-13T15:07:58;25.90;99.90
8402;DHT22;4238;48.404;9.498;2023-07-13T15:10:27;26.00;99.90
8402;DHT22;4238;48.404;9.498;2023-07-13T15:12:58;26.00;99.90
8402;DHT22;4238;48.404;9.498;2023-07-13T15:15:27;26.00;99.90
8402;DHT22;4238;48.404;9.498;2023-07-13T15:17:55;25.50;99.90
8402;DHT22;4238;48.404;9.498;2023-07-13T15:20:26;25.20;99.90
8402;DHT22;4238;48.404;9.498;2023-07-13T15:22:54;24.70;99.90
8402;DHT22;4238;48.404;9.498;2023-07-13T15:25:22;24.30;99.90
8402;DHT22;4238;48.404;9.498;2023-07-13T15:27:50;24.20;99.90
8402;DHT22;4238;48.404;9.498;2023-07-13T15:30:17;24.20;99.90
8402;DHT22;4238;48.404;9.498;2023-07-13T15:32:45;24.30;99.90
8402;DHT22;4238;48.404;9.498;2023-07-13T15:35:19;24.60;99.90
8402;DHT22;4238;48.404;9.498;2023-07-13T15:37:47;25.00;99.90
8402;DHT22;4238;48.404;9.498;2023-07-13T15:40:16;25.30;99.90
8402;DHT22;4238;48.404;9.498;2023-07-13T15:42:44;25.60;99.90
8402;DHT22;4238;48.404;9.498;2023-07-13T15:45:17;25.70;99.90
8402;DHT22;4238;48.404;9.498;2023-07-13T15:47:45;25.90;99.90
8402;DHT22;4238;48.404;9.498;2023-07-13T15:50:13;25.90;99.90
8402;DHT22;4238;48.404;9.498;2023-07-13T15:52:42;25.50;99.90
8402;DHT22;4238;48.404;9.498;2023-07-13T15:55:11;25.10;99.90
8402;DHT22;4238;48.404;9.498;2023-07-13T15:57:39;24.80;99.90
8402;DHT22;4238;48.404;9.498;2023-07-13T16:00:16;24.50;99.90
8402;DHT22;4238;48.404;9.498;2023-07-13T16:02:45;24.30;99.90
8402;DHT22;4238;48.404;9.498;2023-07-13T16:05:12;24.20;99.90
8402;DHT22;4238;48.404;9.498;2023-07-13T16:07:43;24.10;99.90
8402;DHT22;4238;48.404;9.498;2023-07-13T16:10:14;24.10;99.90
8402;DHT22;4238;48.404;9.498;2023-07-13T16:12:42;24.30;99.90
8402;DHT22;4238;48.404;9.498;2023-07-13T16:15:14;24.20;99.90
8402;DHT22;4238;48.404;9.498;2023-07-13T16:17:41;24.00;99.90
8402;DHT22;4238;48.404;9.498;2023-07-13T16:20:09;24.20;99.90
8402;DHT22;4238;48.404;9.498;2023-07-13T16:22:37;24.30;99.90
8402;DHT22;4238;48.404;9.498;2023-07-13T16:25:15;24.50;99.90
8402;DHT22;4238;48.404;9.498;2023-07-13T16:27:44;24.60;99.90
8402;DHT22;4238;48.404;9.498;2023-07-13T16:30:15;24.80;99.90
8402;DHT22;4238;48.404;9.498;2023-07-13T16:32:43;25.00;99.90
8402;DHT22;4238;48.404;9.498;2023-07-13T16:35:10;24.80;99.90
8402;DHT22;4238;48.404;9.498;2023-07-13T16:37:38;24.40;99.90
8402;DHT22;4238;48.404;9.498;2023-07-13T16:42:49;24.50;99.90
8402;DHT22;4238;48.404;9.498;2023-07-13T16:45:17;24.60;99.90
8402;DHT22;4238;48.404;9.498;2023-07-13T16:55:32;24.00;99.90
8402;DHT22;4238;48.404;9.498;2023-07-13T16:58:00;23.80;99.90
8402;DHT22;4238;48.404;9.498;2023-07-13T17:00:30;23.70;99.90
8402;DHT22;4238;48.404;9.498;2023-07-13T17:02:59;23.30;99.90
8402;DHT22;4238;48.404;9.498;2023-07-13T17:05:29;23.30;99.90
8402;DHT22;4238;48.404;9.498;2023-07-13T17:07:56;23.20;99.90
8402;DHT22;4238;48.404;9.498;2023-07-13T17:10:24;23.30;99.90
8402;DHT22;4238;48.404;9.498;2023-07-13T17:12:56;23.20;99.90
8402;DHT22;4238;48.404;9.498;2023-07-13T17:15:26;23.20;99.90
8402;DHT22;4238;48.404;9.498;2023-07-13T17:17:54;23.20;99.90
8402;DHT22;4238;48.404;9.498;2023-07-13T17:20:32;23.00;99.90
8402;DHT22;4238;48.404;9.498;2023-07-13T17:23:03;22.90;99.90
8402;DHT22;4238;48.404;9.498;2023-07-13T17:25:31;22.80;99.90
8402;DHT22;4238;48.404;9.498;2023-07-13T17:27:58;22.90;99.90
8402;DHT22;4238;48.404;9.498;2023-07-13T17:30:26;22.90;99.90
8402;DHT22;4238;48.404;9.498;2023-07-13T17:32:54;22.70;99.90
8402;DHT22;4238;48.404;9.498;2023-07-13T17:35:24;22.70;99.90
8402;DHT22;4238;48.404;9.498;2023-07-13T17:37:52;22.70;99.90
8402;DHT22;4238;48.404;9.498;2023-07-13T17:40:20;22.60;99.90
8402;DHT22;4238;48.404;9.498;2023-07-13T17:42:48;22.60;99.90
8402;DHT22;4238;48.404;9.498;2023-07-13T17:45:21;22.50;99.90
8402;DHT22;4238;48.404;9.498;2023-07-13T17:47:49;22.40;99.90
8402;DHT22;4238;48.404;9.498;2023-07-13T17:50:25;22.30;99.90
8402;DHT22;4238;48.404;9.498;2023-07-13T17:53:01;22.20;99.90
8402;DHT22;4238;48.404;9.498;2023-07-13T17:55:31;22.00;99.90
8402;DHT22;4238;48.404;9.498;2023-07-13T17:57:59;21.90;99.90
8402;DHT22;4238;48.404;9.498;2023-07-13T18:00:29;21.90;99.90
8402;DHT22;4238;48.404;9.498;2023-07-13T18:03:05;21.80;99.90
8402;DHT22;4238;48.404;9.498;2023-07-13T18:05:36;21.70;1.00
8402;DHT22;4238;48.404;9.498;2023-07-13T18:08:03;21.50;1.00
8402;DHT22;4238;48.404;9.498;2023-07-13T18:10:32;21.40;1.00
8402;DHT22;4238;48.404;9.498;2023-07-13T18:12:59;21.30;1.00
8402;DHT22;4238;48.404;9.498;2023-07-13T18:15:29;21.20;1.00
8402;DHT22;4238;48.404;9.498;2023-07-13T18:17:58;21.30;1.00
8402;DHT22;4238;48.404;9.498;2023-07-13T18:20:27;21.20;1.00
8402;DHT22;4238;48.404;9.498;2023-07-13T18:22:56;21.10;1.00
8402;DHT22;4238;48.404;9.498;2023-07-13T18:25:24;21.10;1.00
8402;DHT22;4238;48.404;9.498;2023-07-13T18:27:52;21.00;1.00
8402;DHT22;4238;48.404;9.498;2023-07-13T18:30:20;21.10;1.00
8402;DHT22;4238;48.404;9.498;2023-07-13T18:32:49;21.00;1.00
8402;DHT22;4238;48.404;9.498;2023-07-13T18:35:23;20.90;1.00
8402;DHT22;4238;48.404;9.498;2023-07-13T18:37:54;20.90;1.00
8402;DHT22;4238;48.404;9.498;2023-07-13T18:40:22;20.80;1.00
8402;DHT22;4238;48.404;9.498;2023-07-13T18:42:52;20.70;1.00
8402;DHT22;4238;48.404;9.498;2023-07-13T18:45:20;20.70;1.00
8402;DHT22;4238;48.404;9.498;2023-07-13T18:47:51;20.70;1.00
8402;DHT22;4238;48.404;9.498;2023-07-13T18:50:20;20.60;1.00
8402;DHT22;4238;48.404;9.498;2023-07-13T18:52:48;20.50;1.00
8402;DHT22;4238;48.404;9.498;2023-07-13T18:55:18;20.40;1.00
8402;DHT22;4238;48.404;9.498;2023-07-13T18:57:46;20.30;1.00
8402;DHT22;4238;48.404;9.498;2023-07-13T19:00:14;20.20;1.00
8402;DHT22;4238;48.404;9.498;2023-07-13T19:02:42;20.10;1.00
8402;DHT22;4238;48.404;9.498;2023-07-13T19:05:19;20.00;1.00
8402;DHT22;4238;48.404;9.498;2023-07-13T19:07:46;19.90;1.00
8402;DHT22;4238;48.404;9.498;2023-07-13T19:10:14;19.70;99.90
8402;DHT22;4238;48.404;9.498;2023-07-13T19:12:46;19.50;99.90
8402;DHT22;4238;48.404;9.498;2023-07-13T19:15:25;19.40;1.00
8402;DHT22;4238;48.404;9.498;2023-07-13T19:17:52;19.20;99.90
8402;DHT22;4238;48.404;9.498;2023-07-13T19:20:20;19.20;1.00
8402;DHT22;4238;48.404;9.498;2023-07-13T19:22:53;19.10;99.90
8402;DHT22;4238;48.404;9.498;2023-07-13T19:25:21;19.00;99.90
8402;DHT22;4238;48.404;9.498;2023-07-13T19:27:53;18.90;1.00
8402;DHT22;4238;48.404;9.498;2023-07-13T19:30:23;18.80;99.90
8402;DHT22;4238;48.404;9.498;2023-07-13T19:32:50;18.90;99.90
8402;DHT22;4238;48.404;9.498;2023-07-13T19:35:17;18.90;99.90
8402;DHT22;4238;48.404;9.498;2023-07-13T19:37:44;18.80;1.00
8402;DHT22;4238;48.404;9.498;2023-07-13T19:40:18;18.80;1.00
8402;DHT22;4238;48.404;9.498;2023-07-13T19:42:46;18.70;1.00
8402;DHT22;4238;48.404;9.498;2023-07-13T19:45:20;18.60;99.90
8402;DHT22;4238;48.404;9.498;2023-07-13T19:47:47;18.50;1.00
8402;DHT22;4238;48.404;9.498;2023-07-13T19:50:15;18.40;6.60
8402;DHT22;4238;48.404;9.498;2023-07-13T19:52:45;18.20;1.00
8402;DHT22;4238;48.404;9.498;2023-07-13T19:55:15;18.10;1.00
8402;DHT22;4238;48.404;9.498;2023-07-13T19:57:45;18.00;1.00
8402;DHT22;4238;48.404;9.498;2023-07-13T20:00:18;17.90;99.90
8402;DHT22;4238;48.404;9.498;2023-07-13T20:02:47;17.80;1.00
8402;DHT22;4238;48.404;9.498;2023-07-13T20:05:15;17.70;99.90
8402;DHT22;4238;48.404;9.498;2023-07-13T20:07:43;17.60;1.00
8402;DHT22;4238;48.404;9.498;2023-07-13T20:10:19;17.50;99.90
8402;DHT22;4238;48.404;9.498;2023-07-13T20:12:48;17.50;1.00
8402;DHT22;4238;48.404;9.498;2023-07-13T20:15:18;17.40;1.00
8402;DHT22;4238;48.404;9.498;2023-07-13T20:17:47;17.60;99.90
8402;DHT22;4238;48.404;9.498;2023-07-13T20:20:20;17.70;99.90
8402;DHT22;4238;48.404;9.498;2023-07-13T20:22:48;17.70;1.00
8402;DHT22;4238;48.404;9.498;2023-07-13T20:25:17;17.70;1.00
8402;DHT22;4238;48.404;9.498;2023-07-13T20:27:44;17.60;1.00
8402;DHT22;4238;48.404;9.498;2023-07-13T20:30:11;17.40;1.00
8402;DHT22;4238;48.404;9.498;2023-07-13T20:32:40;17.30;99.90
8402;DHT22;4238;48.404;9.498;2023-07-13T20:35:25;17.10;99.90
8402;DHT22;4238;48.404;9.498;2023-07-13T20:37:53;17.00;99.90
8402;DHT22;4238;48.404;9.498;2023-07-13T20:40:22;16.90;99.90
8402;DHT22;4238;48.404;9.498;2023-07-13T20:42:49;16.70;1.00